sensor_id;sensor_type;location;lat;lon;timestamp;temperature;humidity
1992;DHT22;997;48.448;8.924;2022-10-16T03:00:16;16.50;99.90
1992;DHT22;997;48.448;8.924;2022-10-16T03:02:43;16.40;99.90
1992;DHT22;997;48.448;8.924;2022-10-16T03:05:09;16.30;99.90
1992;DHT22;997;48.448;8.924;2022-10-16T03:07:35;16.40;99.90
1992;DHT22;997;48.448;8.924;2022-10-16T03:10:01;16.30;99.90
1992;DHT22;997;48.448;8.924;2022-10-16T03:12:28;16.20;99.90
1992;DHT22;997;48.448;8.924;2022-10-16T03:14:54;16.10;99.90
1992;DHT22;997;48.448;8.924;2022-10-16T03:17:20;16.10;99.90
1992;DHT22;997;48.448;8.924;2022-10-16T03:19:46;16.10;99.90
1992;DHT22;997;48.448;8.924;2022-10-16T03:22:12;16.10;99.90
1992;DHT22;997;48.448;8.924;2022-10-16T03:24:37;16.10;99.90
1992;DHT22;997;48.448;8.924;2022-10-16T03:27:03;16.20;99.90
1992;DHT22;997;48.448;8.924;2022-10-16T03:29:29;16.30;99.90
1992;DHT22;997;48.448;8.924;2022-10-16T03:31:56;16.30;99.90
1992;DHT22;997;48.448;8.924;2022-10-16T03:34:22;16.30;99.90
1992;DHT22;997;48.448;8.924;2022-10-16T03:36:48;16.40;99.90
1992;DHT22;997;48.448;8.924;2022-10-16T03:39:13;16.30;99.90
1992;DHT22;997;48.448;8.924;2022-10-16T03:41:39;16.30;99.90
1992;DHT22;997;48.448;8.924;2022-10-16T03:44:05;16.30;99.90
1992;DHT22;997;48.448;8.924;2022-10-16T03:46:31;16.30;99.90
1992;DHT22;997;48.448;8.924;2022-10-16T03:48:57;16.30;99.90
1992;DHT22;997;48.448;8.924;2022-10-16T03:51:23;16.30;99.90
1992;DHT22;997;48.448;8.924;2022-10-16T03:53:49;16.30;99.90
1992;DHT22;997;48.448;8.924;2022-10-16T03:56:15;16.30;99.90
1992;DHT22;997;48.448;8.924;2022-10-16T03:58:41;16.30;99.90
1992;DHT22;997;48.448;8.924;2022-10-16T04:01:07;16.30;99.90
1992;DHT22;997;48.448;8.924;2022-10-16T04:03:33;16.30;99.90
1992;DHT22;997;48.448;8.924;2022-10-16T04:05:59;16.20;99.90
1992;DHT22;997;48.448;8.924;2022-10-16T04:08:25;16.20;99.90
1992;DHT22;997;48.448;8.924;2022-10-16T04:10:51;16.20;99.90
1992;DHT22;997;48.448;8.924;2022-10-16T04:13:17;16.20;99.90
1992;DHT22;997;48.448;8.924;2022-10-16T04:15:45;16.20;99.90
1992;DHT22;997;48.448;8.924;2022-10-16T04:18:11;16.20;99.90
1992;DHT22;997;48.448;8.924;2022-10-16T04:20:37;16.30;99.90
1992;DHT22;997;48.448;8.924;2022-10-16T04:23:03;16.40;99.90
1992;DHT22;997;48.448;8.924;2022-10-16T04:25:28;16.40;99.90
1992;DHT22;997;48.448;8.924;2022-10-16T04:27:55;16.50;99.90
1992;DHT22;997;48.448;8.924;2022-10-16T04:30:22;16.60;99.90
1992;DHT22;997;48.448;8.924;2022-10-16T04:32:49;16.70;99.90
1992;DHT22;997;48.448;8.924;2022-10-16T04:35:16;16.60;99.90
1992;DHT22;997;48.448;8.924;2022-10-16T04:37:42;16.70;99.90
1992;DHT22;997;48.448;8.924;2022-10-16T04:40:08;16.70;99.90
1992;DHT22;997;48.448;8.924;2022-10-16T04:42:35;16.80;99.90
1992;DHT22;997;48.448;8.924;2022-10-16T04:45:01;16.80;99.90
1992;DHT22;997;48.448;8.924;2022-10-16T04:47:27;16.80;99.90
1992;DHT22;997;48.448;8.924;2022-10-16T04:49:53;16.80;99.90
1992;DHT22;997;48.448;8.924;2022-10-16T04:52:19;16.90;99.90
1992;DHT22;997;48.448;8.924;2022-10-16T04:54:47;16.80;99.90
1992;DHT22;997;48.448;8.924;2022-10-16T04:57:12;16.80;99.90
1992;DHT22;997;48.448;8.924;2022-10-16T04:59:39;16.90;99.90
1992;DHT22;997;48.448;8.924;2022-10-16T05:02:05;16.90;99.90
1992;DHT22;997;48.448;8.924;2022-10-16T05:04:31;16.90;99.90
1992;DHT22;997;48.448;8.924;2022-10-16T05:06:57;16.80;99.90
1992;DHT22;997;48.448;8.924;2022-10-16T05:09:23;16.80;99.90
1992;DHT22;997;48.448;8.924;2022-10-16T05:11:49;16.80;99.90
1992;DHT22;997;48.448;8.924;2022-10-16T05:14:15;16.80;99.90
1992;DHT22;997;48.448;8.924;2022-10-16T05:16:41;16.70;99.90
1992;DHT22;997;48.448;8.924;2022-10-16T05:19:07;16.60;99.90
1992;DHT22;997;48.448;8.924;2022-10-16T05:21:33;16.60;99.90
1992;DHT22;997;48.448;8.924;2022-10-16T05:23:58;16.50;99.90
1992;DHT22;997;48.448;8.924;2022-10-16T05:26:24;16.40;99.90
1992;DHT22;997;48.448;8.924;2022-10-16T05:28:50;16.40;99.90
1992;DHT22;997;48.448;8.924;2022-10-16T05:31:16;16.40;99.90
1992;DHT22;997;48.448;8.924;2022-10-16T05:33:42;16.40;99.90
1992;DHT22;997;48.448;8.924;2022-10-16T05:36:10;16.40;99.90
1992;DHT22;997;48.448;8.924;2022-10-16T05:38:36;16.30;99.90
1992;DHT22;997;48.448;8.924;2022-10-16T05:41:03;16.40;99.90
1992;DHT22;997;48.448;8.924;2022-10-16T05:43:30;16.50;99.90
1992;DHT22;997;48.448;8.924;2022-10-16T05:46:02;16.60;99.90
1992;DHT22;997;48.448;8.924;2022-10-16T05:48:28;16.70;99.90
1992;DHT22;997;48.448;8.924;2022-10-16T05:51:05;16.70;99.90
1992;DHT22;997;48.448;8.924;2022-10-16T05:53:35;16.80;99.90
1992;DHT22;997;48.448;8.924;2022-10-16T05:56:02;16.90;99.90
1992;DHT22;997;48.448;8.924;2022-10-16T05:58:30;16.90;99.90
1992;DHT22;997;48.448;8.924;2022-10-16T06:01:00;16.90;99.90
1992;DHT22;997;48.448;8.924;2022-10-16T06:03:26;16.90;99.90
1992;DHT22;997;48.448;8.924;2022-10-16T06:05:52;16.90;99.90
1992;DHT22;997;48.448;8.924;2022-10-16T06:08:19;16.80;99.90
1992;DHT22;997;48.448;8.924;2022-10-16T06:10:46;16.80;99.90
1992;DHT22;997;48.448;8.924;2022-10-16T06:13:13;16.80;99.90
1992;DHT22;997;48.448;8.924;2022-10-16T06:15:41;16.90;99.90
1992;DHT22;997;48.448;8.924;2022-10-16T06:18:08;16.90;99.90
1992;DHT22;997;48.448;8.924;2022-10-16T06:20:35;16.70;99.90
1992;DHT22;997;48.448;8.924;2022-10-16T06:23:01;16.70;99.90
1992;DHT22;997;48.448;8.924;2022-10-16T06:25:30;16.70;99.90
1992;DHT22;997;48.448;8.924;2022-10-16T06:27:56;16.70;99.90
1992;DHT22;997;48.448;8.924;2022-10-16T06:30:22;16.60;99.90
1992;DHT22;997;48.448;8.924;2022-10-16T06:32:48;16.80;99.90
1992;DHT22;997;48.448;8.924;2022-10-16T06:35:14;16.80;99.90
1992;DHT22;997;48.448;8.924;2022-10-16T06:37:39;16.80;99.90
1992;DHT22;997;48.448;8.924;2022-10-16T06:40:05;16.80;99.90
1992;DHT22;997;48.448;8.924;2022-10-16T06:42:31;16.90;99.90
1992;DHT22;997;48.448;8.924;2022-10-16T06:44:57;16.90;99.90
1992;DHT22;997;48.448;8.924;2022-10-16T06:47:23;16.90;99.90
1992;DHT22;997;48.448;8.924;2022-10-16T06:49:49;17.00;99.90
1992;DHT22;997;48.448;8.924;2022-10-16T06:52:15;17.20;99.90
1992;DHT22;997;48.448;8.924;2022-10-16T06:54:40;17.30;99.90
1992;DHT22;997;48.448;8.924;2022-10-16T06:57:06;17.30;99.90
1992;DHT22;997;48.448;8.924;2022-10-16T06:59:32;17.40;99.90
1992;DHT22;997;48.448;8.924;2022-10-16T07:01:58;17.50;99.90
1992;DHT22;997;48.448;8.924;2022-10-16T07:04:24;17.60;99.90
1992;DHT22;997;48.448;8.924;2022-10-16T07:06:49;17.50;99.90
1992;DHT22;997;48.448;8.924;2022-10-16T07:09:16;17.50;99.90
1992;DHT22;997;48.448;8.924;2022-10-16T07:11:42;17.50;99.90
1992;DHT22;997;48.448;8.924;2022-10-16T07:14:16;17.50;99.90
1992;DHT22;997;48.448;8.924;2022-10-16T07:16:42;17.50;99.90
1992;DHT22;997;48.448;8.924;2022-10-16T07:19:08;17.40;99.90
1992;DHT22;997;48.448;8.924;2022-10-16T07:21:35;17.40;99.90
1992;DHT22;997;48.448;8.924;2022-10-16T07:24:01;17.40;99.90
1992;DHT22;997;48.448;8.924;2022-10-16T07:26:29;17.50;99.90
1992;DHT22;997;48.448;8.924;2022-10-16T07:28:55;17.60;99.90
1992;DHT22;997;48.448;8.924;2022-10-16T07:31:22;17.70;99.90
1992;DHT22;997;48.448;8.924;2022-10-16T07:33:49;17.60;99.90
1992;DHT22;997;48.448;8.924;2022-10-16T07:36:17;17.60;99.90
1992;DHT22;997;48.448;8.924;2022-10-16T07:38:43;17.60;99.90
1992;DHT22;997;48.448;8.924;2022-10-16T07:41:14;17.80;99.90
1992;DHT22;997;48.448;8.924;2022-10-16T07:43:44;17.90;99.90
1992;DHT22;997;48.448;8.924;2022-10-16T07:46:10;17.80;99.90
1992;DHT22;997;48.448;8.924;2022-10-16T07:48:36;17.90;99.90
1992;DHT22;997;48.448;8.924;2022-10-16T07:51:04;17.90;99.90
1992;DHT22;997;48.448;8.924;2022-10-16T07:53:30;17.90;99.90
1992;DHT22;997;48.448;8.924;2022-10-16T07:56:00;17.80;99.90
1992;DHT22;997;48.448;8.924;2022-10-16T07:58:28;17.70;99.90
1992;DHT22;997;48.448;8.924;2022-10-16T08:00:54;17.70;99.90
1992;DHT22;997;48.448;8.924;2022-10-16T08:03:20;17.70;99.90
1992;DHT22;997;48.448;8.924;2022-10-16T08:05:46;17.70;99.90
1992;DHT22;997;48.448;8.924;2022-10-16T08:08:16;17.70;99.90
1992;DHT22;997;48.448;8.924;2022-10-16T08:10:42;17.80;99.90
1992;DHT22;997;48.448;8.924;2022-10-16T08:13:08;17.90;99.90
1992;DHT22;997;48.448;8.924;2022-10-16T08:15:34;17.90;99.90
1992;DHT22;997;48.448;8.924;2022-10-16T08:18:02;17.90;99.90
1992;DHT22;997;48.448;8.924;2022-10-16T08:20:29;17.90;99.90
1992;DHT22;997;48.448;8.924;2022-10-16T08:22:56;18.10;99.90
1992;DHT22;997;48.448;8.924;2022-10-16T08:25:22;18.10;99.90
1992;DHT22;997;48.448;8.924;2022-10-16T08:27:49;18.20;99.90
1992;DHT22;997;48.448;8.924;2022-10-16T08:30:16;18.20;99.90
1992;DHT22;997;48.448;8.924;2022-10-16T08:32:42;18.30;99.90
1992;DHT22;997;48.448;8.924;2022-10-16T08:35:12;18.40;99.90
1992;DHT22;997;48.448;8.924;2022-10-16T08:37:38;18.50;99.90
1992;DHT22;997;48.448;8.924;2022-10-16T08:40:07;18.60;99.90
1992;DHT22;997;48.448;8.924;2022-10-16T08:45:44;18.70;99.90
1992;DHT22;997;48.448;8.924;2022-10-16T08:50:44;18.80;99.90
1992;DHT22;997;48.448;8.924;2022-10-16T08:53:27;18.90;99.90
1992;DHT22;997;48.448;8.924;2022-10-16T08:55:54;18.90;99.90
1992;DHT22;997;48.448;8.924;2022-10-16T08:58:22;18.80;99.90
1992;DHT22;997;48.448;8.924;2022-10-16T09:00:52;18.80;99.90
1992;DHT22;997;48.448;8.924;2022-10-16T09:06:10;18.90;99.90
1992;DHT22;997;48.448;8.924;2022-10-16T09:11:51;18.90;99.90
1992;DHT22;997;48.448;8.924;2022-10-16T09:16:57;19.00;99.90
1992;DHT22;997;48.448;8.924;2022-10-16T09:21:55;19.20;99.90
1992;DHT22;997;48.448;8.924;2022-10-16T09:24:25;19.40;99.90
1992;DHT22;997;48.448;8.924;2022-10-16T09:26:51;19.50;99.90
1992;DHT22;997;48.448;8.924;2022-10-16T09:29:18;19.60;99.90
1992;DHT22;997;48.448;8.924;2022-10-16T09:31:49;19.70;99.90
1992;DHT22;997;48.448;8.924;2022-10-16T09:34:33;19.70;99.90
1992;DHT22;997;48.448;8.924;2022-10-16T09:37:03;19.70;99.90
1992;DHT22;997;48.448;8.924;2022-10-16T09:39:29;19.80;99.90
1992;DHT22;997;48.448;8.924;2022-10-16T09:41:55;19.80;99.90
1992;DHT22;997;48.448;8.924;2022-10-16T09:44:26;19.80;99.90
1992;DHT22;997;48.448;8.924;2022-10-16T09:47:12;20.00;99.90
1992;DHT22;997;48.448;8.924;2022-10-16T09:49:54;20.10;99.90
1992;DHT22;997;48.448;8.924;2022-10-16T09:52:22;20.10;99.90
1992;DHT22;997;48.448;8.924;2022-10-16T09:54:56;20.10;99.90
1992;DHT22;997;48.448;8.924;2022-10-16T09:57:24;20.00;99.90
1992;DHT22;997;48.448;8.924;2022-10-16T10:02:31;20.10;99.90
1992;DHT22;997;48.448;8.924;2022-10-16T10:04:59;20.20;99.90
1992;DHT22;997;48.448;8.924;2022-10-16T10:07:27;20.20;99.90
1992;DHT22;997;48.448;8.924;2022-10-16T10:09:54;20.30;99.90
1992;DHT22;997;48.448;8.924;2022-10-16T10:12:29;20.40;99.90
1992;DHT22;997;48.448;8.924;2022-10-16T10:15:03;20.50;99.90
1992;DHT22;997;48.448;8.924;2022-10-16T10:17:29;20.60;99.90
1992;DHT22;997;48.448;8.924;2022-10-16T10:24:56;21.10;99.90
1992;DHT22;997;48.448;8.924;2022-10-16T10:27:49;21.20;99.90
1992;DHT22;997;48.448;8.924;2022-10-16T10:36:25;21.40;99.90
1992;DHT22;997;48.448;8.924;2022-10-16T10:44:33;21.80;99.90
1992;DHT22;997;48.448;8.924;2022-10-16T10:53:18;21.90;99.90
1992;DHT22;997;48.448;8.924;2022-10-16T10:59:14;22.10;99.90
1992;DHT22;997;48.448;8.924;2022-10-16T11:02:00;22.20;99.90
1992;DHT22;997;48.448;8.924;2022-10-16T11:07:48;22.50;99.90
1992;DHT22;997;48.448;8.924;2022-10-16T11:10:20;22.50;99.90
1992;DHT22;997;48.448;8.924;2022-10-16T11:12:54;22.60;99.90
1992;DHT22;997;48.448;8.924;2022-10-16T11:20:33;22.90;99.90
1992;DHT22;997;48.448;8.924;2022-10-16T11:23:26;23.00;99.90
1992;DHT22;997;48.448;8.924;2022-10-16T11:25:54;23.00;99.90
1992;DHT22;997;48.448;8.924;2022-10-16T11:28:38;23.10;99.90
1992;DHT22;997;48.448;8.924;2022-10-16T11:37:20;23.30;99.90
1992;DHT22;997;48.448;8.924;2022-10-16T11:39:50;23.40;99.90
1992;DHT22;997;48.448;8.924;2022-10-16T11:42:25;23.40;99.90
1992;DHT22;997;48.448;8.924;2022-10-16T11:45:26;23.40;99.90
1992;DHT22;997;48.448;8.924;2022-10-16T11:48:02;23.30;99.90
1992;DHT22;997;48.448;8.924;2022-10-16T11:55:40;23.40;99.90
1992;DHT22;997;48.448;8.924;2022-10-16T11:58:20;23.50;99.90
1992;DHT22;997;48.448;8.924;2022-10-16T12:03:59;23.90;99.90
1992;DHT22;997;48.448;8.924;2022-10-16T12:08:59;24.30;99.90
1992;DHT22;997;48.448;8.924;2022-10-16T12:14:19;24.30;99.90
1992;DHT22;997;48.448;8.924;2022-10-16T12:17:03;24.30;99.90
1992;DHT22;997;48.448;8.924;2022-10-16T12:19:31;24.30;99.90
1992;DHT22;997;48.448;8.924;2022-10-16T12:22:00;24.30;99.90
1992;DHT22;997;48.448;8.924;2022-10-16T12:26:58;24.50;99.90
1992;DHT22;997;48.448;8.924;2022-10-16T12:29:37;24.50;99.90
1992;DHT22;997;48.448;8.924;2022-10-16T12:32:18;24.60;99.90
1992;DHT22;997;48.448;8.924;2022-10-16T12:34:47;24.60;99.90
1992;DHT22;997;48.448;8.924;2022-10-16T12:37:29;24.60;99.90
1992;DHT22;997;48.448;8.924;2022-10-16T12:39:57;24.60;99.90
1992;DHT22;997;48.448;8.924;2022-10-16T12:44:53;24.50;99.90
1992;DHT22;997;48.448;8.924;2022-10-16T12:47:47;24.50;99.90
1992;DHT22;997;48.448;8.924;2022-10-16T12:50:34;24.60;99.90
1992;DHT22;997;48.448;8.924;2022-10-16T12:53:01;24.80;99.90
1992;DHT22;997;48.448;8.924;2022-10-16T12:55:46;24.90;99.90
1992;DHT22;997;48.448;8.924;2022-10-16T12:58:37;24.70;99.90
1992;DHT22;997;48.448;8.924;2022-10-16T13:06:39;25.00;99.90
1992;DHT22;997;48.448;8.924;2022-10-16T13:17:26;25.20;99.90
1992;DHT22;997;48.448;8.924;2022-10-16T13:28:06;25.00;99.90
1992;DHT22;997;48.448;8.924;2022-10-16T13:30:44;25.10;99.90
1992;DHT22;997;48.448;8.924;2022-10-16T13:33:16;25.20;99.90
1992;DHT22;997;48.448;8.924;2022-10-16T13:35:55;25.30;99.90
1992;DHT22;997;48.448;8.924;2022-10-16T13:38:26;25.40;99.90
1992;DHT22;997;48.448;8.924;2022-10-16T13:41:04;25.60;99.90
1992;DHT22;997;48.448;8.924;2022-10-16T13:43:39;25.70;99.90
1992;DHT22;997;48.448;8.924;2022-10-16T13:46:17;25.70;99.90
1992;DHT22;997;48.448;8.924;2022-10-16T13:48:55;25.80;99.90
1992;DHT22;997;48.448;8.924;2022-10-16T13:51:21;25.80;99.90
1992;DHT22;997;48.448;8.924;2022-10-16T13:53:48;25.60;99.90
1992;DHT22;997;48.448;8.924;2022-10-16T13:56:17;25.60;99.90
1992;DHT22;997;48.448;8.924;2022-10-16T13:58:43;25.70;99.90
1992;DHT22;997;48.448;8.924;2022-10-16T14:01:28;25.80;99.90
1992;DHT22;997;48.448;8.924;2022-10-16T14:04:05;25.90;99.90
1992;DHT22;997;48.448;8.924;2022-10-16T14:06:31;25.80;99.90
1992;DHT22;997;48.448;8.924;2022-10-16T14:12:09;25.90;99.90
1992;DHT22;997;48.448;8.924;2022-10-16T14:14:41;26.00;99.90
1992;DHT22;997;48.448;8.924;2022-10-16T14:17:20;26.00;99.90
1992;DHT22;997;48.448;8.924;2022-10-16T14:19:48;26.10;99.90
1992;DHT22;997;48.448;8.924;2022-10-16T14:22:37;26.10;99.90
1992;DHT22;997;48.448;8.924;2022-10-16T14:25:26;26.10;99.90
1992;DHT22;997;48.448;8.924;2022-10-16T14:30:35;26.40;99.90
1992;DHT22;997;48.448;8.924;2022-10-16T14:33:22;26.40;99.90
1992;DHT22;997;48.448;8.924;2022-10-16T14:38:38;26.50;99.90
1992;DHT22;997;48.448;8.924;2022-10-16T14:41:05;26.90;99.90
1992;DHT22;997;48.448;8.924;2022-10-16T14:43:39;27.30;99.90
1992;DHT22;997;48.448;8.924;2022-10-16T14:46:13;27.70;99.90
1992;DHT22;997;48.448;8.924;2022-10-16T14:48:44;27.80;99.90
1992;DHT22;997;48.448;8.924;2022-10-16T14:51:16;27.90;99.90
1992;DHT22;997;48.448;8.924;2022-10-16T14:53:42;27.90;99.90
1992;DHT22;997;48.448;8.924;2022-10-16T14:56:29;27.70;99.90
1992;DHT22;997;48.448;8.924;2022-10-16T14:58:55;27.60;99.90
1992;DHT22;997;48.448;8.924;2022-10-16T15:01:21;27.50;99.90
1992;DHT22;997;48.448;8.924;2022-10-16T15:03:47;27.40;99.90
1992;DHT22;997;48.448;8.924;2022-10-16T15:06:15;27.30;99.90
1992;DHT22;997;48.448;8.924;2022-10-16T15:08:43;27.20;99.90
1992;DHT22;997;48.448;8.924;2022-10-16T15:11:14;27.20;99.90
1992;DHT22;997;48.448;8.924;2022-10-16T15:13:41;27.10;99.90
1992;DHT22;997;48.448;8.924;2022-10-16T15:16:16;27.00;99.90
1992;DHT22;997;48.448;8.924;2022-10-16T15:18:42;26.80;99.90
1992;DHT22;997;48.448;8.924;2022-10-16T15:21:13;26.50;99.90
1992;DHT22;997;48.448;8.924;2022-10-16T15:23:45;26.30;99.90
1992;DHT22;997;48.448;8.924;2022-10-16T15:26:11;26.30;99.90
1992;DHT22;997;48.448;8.924;2022-10-16T15:28:37;26.30;99.90
1992;DHT22;997;48.448;8.924;2022-10-16T15:31:04;26.30;99.90
1992;DHT22;997;48.448;8.924;2022-10-16T15:33:30;26.20;99.90
1992;DHT22;997;48.448;8.924;2022-10-16T15:35:59;26.10;99.90
1992;DHT22;997;48.448;8.924;2022-10-16T15:38:26;25.90;99.90
1992;DHT22;997;48.448;8.924;2022-10-16T15:40:52;25.70;99.90
1992;DHT22;997;48.448;8.924;2022-10-16T15:43:18;25.60;99.90
1992;DHT22;997;48.448;8.924;2022-10-16T15:45:47;25.50;99.90
1992;DHT22;997;48.448;8.924;2022-10-16T15:48:17;25.50;99.90
1992;DHT22;997;48.448;8.924;2022-10-16T15:50:43;25.50;99.90
1992;DHT22;997;48.448;8.924;2022-10-16T15:53:09;25.50;99.90
1992;DHT22;997;48.448;8.924;2022-10-16T15:55:34;25.40;99.90
1992;DHT22;997;48.448;8.924;2022-10-16T15:58:03;25.30;99.90
1992;DHT22;997;48.448;8.924;2022-10-16T16:00:28;25.20;99.90
1992;DHT22;997;48.448;8.924;2022-10-16T16:02:54;25.10;99.90
1992;DHT22;997;48.448;8.924;2022-10-16T16:05:21;24.90;99.90
1992;DHT22;997;48.448;8.924;2022-10-16T16:07:49;24.80;99.90
1992;DHT22;997;48.448;8.924;2022-10-16T16:10:15;24.70;99.90
1992;DHT22;997;48.448;8.924;2022-10-16T16:12:41;24.50;99.90
1992;DHT22;997;48.448;8.924;2022-10-16T16:15:08;24.40;99.90
1992;DHT22;997;48.448;8.924;2022-10-16T16:17:35;24.20;99.90
1992;DHT22;997;48.448;8.924;2022-10-16T16:20:02;24.10;99.90
1992;DHT22;997;48.448;8.924;2022-10-16T16:22:29;24.00;99.90
1992;DHT22;997;48.448;8.924;2022-10-16T16:24:55;24.00;99.90
1992;DHT22;997;48.448;8.924;2022-10-16T16:27:21;23.80;99.90
1992;DHT22;997;48.448;8.924;2022-10-16T16:29:47;23.60;99.90
1992;DHT22;997;48.448;8.924;2022-10-16T16:32:13;23.40;99.90
1992;DHT22;997;48.448;8.924;2022-10-16T16:34:38;23.00;99.90
1992;DHT22;997;48.448;8.924;2022-10-16T16:37:04;22.80;99.90
1992;DHT22;997;48.448;8.924;2022-10-16T16:39:30;22.60;99.90
1992;DHT22;997;48.448;8.924;2022-10-16T16:41:56;22.60;99.90
1992;DHT22;997;48.448;8.924;2022-10-16T16:44:23;22.50;99.90
1992;DHT22;997;48.448;8.924;2022-10-16T16:46:49;22.40;99.90
1992;DHT22;997;48.448;8.924;2022-10-16T16:49:15;22.40;99.90
1992;DHT22;997;48.448;8.924;2022-10-16T16:51:41;22.30;99.90
1992;DHT22;997;48.448;8.924;2022-10-16T16:54:07;22.30;99.90
1992;DHT22;997;48.448;8.924;2022-10-16T16:56:33;22.20;99.90
1992;DHT22;997;48.448;8.924;2022-10-16T16:58:59;22.20;99.90
1992;DHT22;997;48.448;8.924;2022-10-16T17:01:26;22.20;99.90
1992;DHT22;997;48.448;8.924;2022-10-16T17:03:54;22.10;99.90
1992;DHT22;997;48.448;8.924;2022-10-16T17:06:22;21.90;99.90
1992;DHT22;997;48.448;8.924;2022-10-16T17:08:49;21.80;99.90
1992;DHT22;997;48.448;8.924;2022-10-16T17:11:21;21.70;99.90
1992;DHT22;997;48.448;8.924;2022-10-16T17:13:47;21.60;99.90
1992;DHT22;997;48.448;8.924;2022-10-16T17:16:13;21.50;99.90
1992;DHT22;997;48.448;8.924;2022-10-16T17:18:39;21.30;99.90
1992;DHT22;997;48.448;8.924;2022-10-16T17:21:07;21.20;99.90
1992;DHT22;997;48.448;8.924;2022-10-16T17:23:35;21.00;99.90
1992;DHT22;997;48.448;8.924;2022-10-16T17:26:06;20.90;99.90
1992;DHT22;997;48.448;8.924;2022-10-16T17:28:33;20.80;99.90
1992;DHT22;997;48.448;8.924;2022-10-16T17:31:23;20.60;99.90
1992;DHT22;997;48.448;8.924;2022-10-16T17:33:50;20.50;99.90
1992;DHT22;997;48.448;8.924;2022-10-16T17:36:20;20.40;99.90
1992;DHT22;997;48.448;8.924;2022-10-16T17:38:46;20.40;99.90
1992;DHT22;997;48.448;8.924;2022-10-16T17:41:23;20.20;99.90
1992;DHT22;997;48.448;8.924;2022-10-16T17:43:50;20.20;99.90
1992;DHT22;997;48.448;8.924;2022-10-16T17:46:18;20.20;99.90
1992;DHT22;997;48.448;8.924;2022-10-16T17:48:46;20.10;99.90
1992;DHT22;997;48.448;8.924;2022-10-16T17:51:15;20.10;99.90
1992;DHT22;997;48.448;8.924;2022-10-16T17:53:41;20.00;99.90
1992;DHT22;997;48.448;8.924;2022-10-16T17:56:12;20.10;99.90
1992;DHT22;997;48.448;8.924;2022-10-16T17:58:39;20.10;99.90
1992;DHT22;997;48.448;8.924;2022-10-16T18:01:17;20.00;99.90
1992;DHT22;997;48.448;8.924;2022-10-16T18:03:43;20.10;99.90
1992;DHT22;997;48.448;8.924;2022-10-16T18:06:09;20.10;99.90
1992;DHT22;997;48.448;8.924;2022-10-16T18:08:37;20.10;99.90
1992;DHT22;997;48.448;8.924;2022-10-16T18:11:03;20.10;99.90
1992;DHT22;997;48.448;8.924;2022-10-16T18:13:30;20.20;99.90
1992;DHT22;997;48.448;8.924;2022-10-16T18:16:08;20.20;99.90
1992;DHT22;997;48.448;8.924;2022-10-16T18:18:38;20.20;99.90
1992;DHT22;997;48.448;8.924;2022-10-16T18:21:07;20.10;99.90
1992;DHT22;997;48.448;8.924;2022-10-16T18:23:36;19.90;99.90
1992;DHT22;997;48.448;8.924;2022-10-16T18:26:03;19.90;99.90
1992;DHT22;997;48.448;8.924;2022-10-16T18:28:29;20.00;99.90
1992;DHT22;997;48.448;8.924;2022-10-16T18:31:00;20.00;99.90
1992;DHT22;997;48.448;8.924;2022-10-16T18:33:27;20.00;99.90
1992;DHT22;997;48.448;8.924;2022-10-16T18:35:55;20.00;99.90
1992;DHT22;997;48.448;8.924;2022-10-16T18:38:21;20.00;99.90
1992;DHT22;997;48.448;8.924;2022-10-16T18:40:46;19.90;99.90
1992;DHT22;997;48.448;8.924;2022-10-16T18:43:12;19.90;99.90
1992;DHT22;997;48.448;8.924;2022-10-16T18:45:38;19.90;99.90
1992;DHT22;997;48.448;8.924;2022-10-16T18:48:04;19.90;99.90
1992;DHT22;997;48.448;8.924;2022-10-16T18:50:30;19.90;99.90
1992;DHT22;997;48.448;8.924;2022-10-16T18:52:55;20.00;99.90
1992;DHT22;997;48.448;8.924;2022-10-16T18:55:21;20.00;99.90
1992;DHT22;997;48.448;8.924;2022-10-16T18:57:47;19.90;99.90
1992;DHT22;997;48.448;8.924;2022-10-16T19:00:13;19.90;99.90
1992;DHT22;997;48.448;8.924;2022-10-16T19:02:38;19.80;99.90
1992;DHT22;997;48.448;8.924;2022-10-16T19:05:04;19.70;99.90
1992;DHT22;997;48.448;8.924;2022-10-16T19:07:30;19.60;99.90
1992;DHT22;997;48.448;8.924;2022-10-16T19:09:56;19.50;99.90
1992;DHT22;997;48.448;8.924;2022-10-16T19:12:22;19.50;99.90
1992;DHT22;997;48.448;8.924;2022-10-16T19:14:48;19.50;99.90
1992;DHT22;997;48.448;8.924;2022-10-16T19:17:13;19.50;99.90
1992;DHT22;997;48.448;8.924;2022-10-16T19:19:39;19.40;99.90
1992;DHT22;997;48.448;8.924;2022-10-16T19:22:05;19.30;99.90
1992;DHT22;997;48.448;8.924;2022-10-16T19:24:39;19.30;99.90
1992;DHT22;997;48.448;8.924;2022-10-16T19:27:05;19.30;99.90
1992;DHT22;997;48.448;8.924;2022-10-16T19:29:31;19.40;99.90
1992;DHT22;997;48.448;8.924;2022-10-16T19:31:58;19.40;99.90
1992;DHT22;997;48.448;8.924;2022-10-16T19:34:29;19.30;99.90
1992;DHT22;997;48.448;8.924;2022-10-16T19:36:55;19.30;99.90
1992;DHT22;997;48.448;8.924;2022-10-16T19:39:20;19.30;99.90
1992;DHT22;997;48.448;8.924;2022-10-16T19:41:46;19.30;99.90
1992;DHT22;997;48.448;8.924;2022-10-16T19:44:14;19.20;99.90
1992;DHT22;997;48.448;8.924;2022-10-16T19:46:41;19.20;99.90
1992;DHT22;997;48.448;8.924;2022-10-16T19:49:10;19.20;99.90
1992;DHT22;997;48.448;8.924;2022-10-16T19:51:37;19.10;99.90
1992;DHT22;997;48.448;8.924;2022-10-16T19:54:09;19.10;99.90
1992;DHT22;997;48.448;8.924;2022-10-16T19:56:36;19.10;99.90
1992;DHT22;997;48.448;8.924;2022-10-16T19:59:03;19.00;99.90
1992;DHT22;997;48.448;8.924;2022-10-16T20:01:30;18.90;99.90
1992;DHT22;997;48.448;8.924;2022-10-16T20:03:56;18.90;99.90
1992;DHT22;997;48.448;8.924;2022-10-16T20:06:22;18.80;99.90
1992;DHT22;997;48.448;8.924;2022-10-16T20:08:50;18.50;99.90
1992;DHT22;997;48.448;8.924;2022-10-16T20:11:24;18.40;99.90
1992;DHT22;997;48.448;8.924;2022-10-16T20:13:50;18.40;99.90
1992;DHT22;997;48.448;8.924;2022-10-16T20:16:17;18.40;99.90
1992;DHT22;997;48.448;8.924;2022-10-16T20:18:45;18.50;99.90
1992;DHT22;997;48.448;8.924;2022-10-16T20:21:13;18.40;99.90
1992;DHT22;997;48.448;8.924;2022-10-16T20:23:39;18.50;99.90
1992;DHT22;997;48.448;8.924;2022-10-16T20:26:06;18.40;99.90
1992;DHT22;997;48.448;8.924;2022-10-16T20:28:32;18.40;99.90
1992;DHT22;997;48.448;8.924;2022-10-16T20:30:58;18.40;99.90
1992;DHT22;997;48.448;8.924;2022-10-16T20:33:23;18.40;99.90
1992;DHT22;997;48.448;8.924;2022-10-16T20:35:50;18.40;99.90
1992;DHT22;997;48.448;8.924;2022-10-16T20:38:17;18.40;99.90
1992;DHT22;997;48.448;8.924;2022-10-16T20:40:45;18.40;99.90
1992;DHT22;997;48.448;8.924;2022-10-16T20:43:12;18.40;99.90
1992;DHT22;997;48.448;8.924;2022-10-16T20:45:39;18.40;99.90
1992;DHT22;997;48.448;8.924;2022-10-16T20:48:04;18.40;99.90
1992;DHT22;997;48.448;8.924;2022-10-16T20:50:31;18.40;99.90
1992;DHT22;997;48.448;8.924;2022-10-16T20:52:58;18.30;99.90
1992;DHT22;997;48.448;8.924;2022-10-16T20:55:24;18.20;99.90
1992;DHT22;997;48.448;8.924;2022-10-16T20:57:50;18.10;99.90
1992;DHT22;997;48.448;8.924;2022-10-16T21:00:16;18.00;99.90
1992;DHT22;997;48.448;8.924;2022-10-16T21:02:43;18.00;99.90
1992;DHT22;997;48.448;8.924;2022-10-16T21:05:09;18.00;99.90
1992;DHT22;997;48.448;8.924;2022-10-16T21:07:35;17.90;99.90
1992;DHT22;997;48.448;8.924;2022-10-16T21:10:00;17.90;99.90
1992;DHT22;997;48.448;8.924;2022-10-16T21:12:26;18.00;99.90
1992;DHT22;997;48.448;8.924;2022-10-16T21:14:52;17.90;99.90